Time;durP1;ratioP1;P1;durP2;ratioP2;P2;SDS_P1;SDS_P2;PMS_P1;PMS_P2;Temp;Humidity;BMP_temperature;BMP_pressure;BME280_temperature;BME280_humidity;BME280_pressure;Samples;Min_cycle;Max_cycle;Signal;HPM_P1;HPM_P2
2023/08/23 03:01:34;;;;;;;;;;;15.00;99.90;;;;;;5447587;23;19985;-77
2023/08/23 03:04:00;;;;;;;;;;;14.90;99.90;;;;;;4954973;28;20005;-80
2023/08/23 03:06:25;;;;;;;;;;;15.00;99.90;;;;;;4954932;29;19923;-77
2023/08/23 03:08:51;;;;;;;;;;;15.00;99.90;;;;;;4954826;29;19922;-77
2023/08/23 03:11:16;;;;;;;;;;;15.00;99.90;;;;;;4954819;28;20307;-77
2023/08/23 03:13:42;;;;;;;;;;;15.00;99.90;;;;;;4954877;29;19970;-79
2023/08/23 03:16:07;;;;;;;;;;;15.00;99.90;;;;;;4954825;29;19922;-78
2023/08/23 03:18:33;;;;;;;;;;;15.00;99.90;;;;;;4954793;28;19973;-78
2023/08/23 03:20:58;;;;;;;;;;;15.00;99.90;;;;;;4954693;28;19926;-79
2023/08/23 03:23:24;;;;;;;;;;;15.00;99.90;;;;;;4954767;29;19932;-78
2023/08/23 03:25:50;;;;;;;;;;;15.00;99.90;;;;;;4954705;29;19930;-78
2023/08/23 03:28:15;;;;;;;;;;;15.00;99.90;;;;;;4955025;28;19922;-79
2023/08/23 03:30:41;;;;;;;;;;;15.00;99.90;;;;;;4938999;29;20284;-79
2023/08/23 03:33:07;;;;;;;;;;;15.00;99.90;;;;;;4954690;29;19929;-79
2023/08/23 03:35:33;;;;;;;;;;;15.00;99.90;;;;;;4954582;28;20339;-78
2023/08/23 03:37:58;;;;;;;;;;;15.00;99.90;;;;;;4955889;28;19934;-78
2023/08/23 03:40:24;;;;;;;;;;;15.00;99.90;;;;;;4954833;28;19929;-78
2023/08/23 03:42:49;;;;;;;;;;;15.10;99.90;;;;;;4954808;29;19923;-78
2023/08/23 03:45:16;;;;;;;;;;;15.10;99.90;;;;;;4955842;29;20380;-78
2023/08/23 03:47:41;;;;;;;;;;;15.10;99.90;;;;;;4954491;29;19926;-77
2023/08/23 03:50:07;;;;;;;;;;;15.10;99.90;;;;;;4954407;29;19934;-78
2023/08/23 03:52:33;;;;;;;;;;;15.10;99.90;;;;;;4954401;28;19922;-78
2023/08/23 03:54:58;;;;;;;;;;;15.20;99.90;;;;;;4954519;28;19981;-77
2023/08/23 03:57:24;;;;;;;;;;;15.20;99.90;;;;;;4954509;29;19945;-77
2023/08/23 03:59:49;;;;;;;;;;;15.20;99.90;;;;;;4957986;28;19923;-78
2023/08/23 04:02:15;;;;;;;;;;;15.20;99.90;;;;;;4960010;28;20277;-78
2023/08/23 04:04:40;;;;;;;;;;;15.20;99.90;;;;;;4958583;28;19930;-78
2023/08/23 04:07:07;;;;;;;;;;;15.20;99.90;;;;;;4959399;29;19930;-78
2023/08/23 04:09:32;;;;;;;;;;;15.20;99.90;;;;;;4959680;28;19945;-77
2023/08/23 04:11:58;;;;;;;;;;;15.10;99.90;;;;;;4958047;28;19922;-77
2023/08/23 04:14:23;;;;;;;;;;;15.20;99.90;;;;;;4958111;29;20017;-78
2023/08/23 04:16:49;;;;;;;;;;;15.20;99.90;;;;;;4958083;28;19926;-79
2023/08/23 04:19:14;;;;;;;;;;;15.20;99.90;;;;;;4959179;29;19926;-79
2023/08/23 04:21:40;;;;;;;;;;;15.20;99.90;;;;;;4958237;28;20451;-78
2023/08/23 04:24:06;;;;;;;;;;;15.10;99.90;;;;;;4958165;28;20017;-79
2023/08/23 04:26:31;;;;;;;;;;;15.10;99.90;;;;;;4957598;29;19961;-78
2023/08/23 04:28:57;;;;;;;;;;;15.20;99.90;;;;;;4957574;29;19929;-77
2023/08/23 04:31:22;;;;;;;;;;;15.20;99.90;;;;;;4958318;28;19922;-78
2023/08/23 04:33:48;;;;;;;;;;;15.20;99.90;;;;;;4957499;29;19927;-78
2023/08/23 04:36:13;;;;;;;;;;;15.30;99.90;;;;;;4958005;28;19945;-78
2023/08/23 04:38:39;;;;;;;;;;;15.30;99.90;;;;;;4941733;29;19922;-77
2023/08/23 04:41:05;;;;;;;;;;;15.30;99.90;;;;;;4957586;28;19926;-78
2023/08/23 04:43:31;;;;;;;;;;;15.30;99.90;;;;;;4958959;29;19922;-77
2023/08/23 04:45:57;;;;;;;;;;;15.30;99.90;;;;;;4957510;29;19945;-78
2023/08/23 04:48:23;;;;;;;;;;;15.30;99.90;;;;;;4958049;29;19923;-78
2023/08/23 04:50:55;;;;;;;;;;;15.30;99.90;;;;;;4957241;28;20406;-78
2023/08/23 04:53:21;;;;;;;;;;;15.30;99.90;;;;;;4957722;29;19922;-79
2023/08/23 04:55:47;;;;;;;;;;;15.30;99.90;;;;;;4957984;29;20290;-79
2023/08/23 04:58:13;;;;;;;;;;;15.20;99.90;;;;;;4957602;29;20327;-78
2023/08/23 05:00:39;;;;;;;;;;;15.30;99.90;;;;;;4941383;28;19974;-77
2023/08/23 05:03:04;;;;;;;;;;;15.30;99.90;;;;;;4958780;28;19981;-78
2023/08/23 05:05:30;;;;;;;;;;;15.30;99.90;;;;;;4957409;29;19929;-77
2023/08/23 05:07:55;;;;;;;;;;;15.30;99.90;;;;;;4957363;28;19969;-78
2023/08/23 05:10:21;;;;;;;;;;;15.30;99.90;;;;;;4956164;28;20307;-79
2023/08/23 05:12:46;;;;;;;;;;;15.30;99.90;;;;;;4958342;29;19922;-78
2023/08/23 05:15:12;;;;;;;;;;;15.40;99.90;;;;;;4956936;29;19970;-78
2023/08/23 05:17:37;;;;;;;;;;;15.40;99.90;;;;;;4957225;29;19973;-78
2023/08/23 05:20:03;;;;;;;;;;;15.30;99.90;;;;;;4940858;29;20420;-78
2023/08/23 05:22:29;;;;;;;;;;;15.40;99.90;;;;;;4957149;28;19929;-78
2023/08/23 05:24:55;;;;;;;;;;;15.40;99.90;;;;;;4957566;29;20275;-78
2023/08/23 05:27:20;;;;;;;;;;;15.40;99.90;;;;;;4956935;29;19922;-77
2023/08/23 05:29:46;;;;;;;;;;;15.40;99.90;;;;;;4957068;29;19927;-78
2023/08/23 05:32:11;;;;;;;;;;;15.50;99.90;;;;;;4956657;28;19945;-78
2023/08/23 05:34:39;;;;;;;;;;;15.50;99.90;;;;;;4956684;28;19922;-78
2023/08/23 05:37:04;;;;;;;;;;;15.50;99.90;;;;;;4956989;29;20332;-79
2023/08/23 05:39:30;;;;;;;;;;;15.50;99.90;;;;;;4956592;29;19922;-79
2023/08/23 05:41:55;;;;;;;;;;;15.50;99.90;;;;;;4956563;28;20005;-79
2023/08/23 05:44:21;;;;;;;;;;;15.50;99.90;;;;;;4956612;29;19958;-79
2023/08/23 05:46:46;;;;;;;;;;;15.60;99.90;;;;;;4957636;29;19969;-79
2023/08/23 05:49:12;;;;;;;;;;;15.50;99.90;;;;;;4956507;29;19926;-78
2023/08/23 05:51:37;;;;;;;;;;;15.60;99.90;;;;;;4956855;28;19973;-79
2023/08/23 05:54:03;;;;;;;;;;;15.70;99.90;;;;;;4956585;29;19922;-78
2023/08/23 05:56:29;;;;;;;;;;;15.70;99.90;;;;;;4956180;29;19922;-78
2023/08/23 05:58:54;;;;;;;;;;;15.70;99.90;;;;;;4956309;29;19933;-78
2023/08/23 06:01:20;;;;;;;;;;;15.80;99.90;;;;;;4956331;28;19922;-78
2023/08/23 06:03:45;;;;;;;;;;;15.80;99.90;;;;;;4956386;29;19928;-79
2023/08/23 06:06:12;;;;;;;;;;;15.90;99.90;;;;;;4956286;29;20058;-78
2023/08/23 06:08:40;;;;;;;;;;;15.90;99.90;;;;;;4955298;29;21488;-79
2023/08/23 06:11:08;;;;;;;;;;;16.00;99.90;;;;;;4955921;28;20451;-79
2023/08/23 06:13:34;;;;;;;;;;;16.00;99.90;;;;;;4955919;29;19985;-79
2023/08/23 06:15:59;;;;;;;;;;;16.00;99.90;;;;;;4956061;29;19950;-78
2023/08/23 06:18:25;;;;;;;;;;;16.10;99.90;;;;;;4955920;29;19933;-79
2023/08/23 06:20:51;;;;;;;;;;;16.10;99.90;;;;;;4955881;28;19922;-78
2023/08/23 06:23:17;;;;;;;;;;;16.20;99.90;;;;;;4955447;28;19930;-77
2023/08/23 06:25:42;;;;;;;;;;;16.10;99.90;;;;;;4956965;29;19922;-79
2023/08/23 06:28:08;;;;;;;;;;;16.20;99.90;;;;;;4955958;29;20017;-79
2023/08/23 06:30:37;;;;;;;;;;;16.20;99.90;;;;;;4957095;28;19926;-78
2023/08/23 06:33:05;;;;;;;;;;;16.20;99.90;;;;;;4955911;28;20388;-79
2023/08/23 06:35:31;;;;;;;;;;;16.30;99.90;;;;;;4957569;29;19922;-80
2023/08/23 06:37:56;;;;;;;;;;;16.20;99.90;;;;;;4957512;28;19930;-78
2023/08/23 06:40:22;;;;;;;;;;;16.20;99.90;;;;;;4955809;28;20269;-78
2023/08/23 06:42:47;;;;;;;;;;;16.30;99.90;;;;;;4956066;29;20376;-79
2023/08/23 06:45:13;;;;;;;;;;;16.30;99.90;;;;;;4956864;28;20282;-79
2023/08/23 06:47:39;;;;;;;;;;;16.30;99.90;;;;;;4956435;29;19923;-78
2023/08/23 06:50:05;;;;;;;;;;;16.30;99.90;;;;;;4955425;28;20299;-79
2023/08/23 06:52:30;;;;;;;;;;;16.30;99.90;;;;;;4956363;28;19930;-79
2023/08/23 06:54:56;;;;;;;;;;;16.40;99.90;;;;;;4955908;29;19922;-78
2023/08/23 06:57:28;;;;;;;;;;;16.40;99.90;;;;;;4955665;29;19923;-79
2023/08/23 06:59:55;;;;;;;;;;;16.50;99.90;;;;;;4957360;29;19929;-79
2023/08/23 07:02:21;;;;;;;;;;;16.60;99.90;;;;;;4955281;28;20261;-79
2023/08/23 07:04:46;;;;;;;;;;;16.70;99.90;;;;;;4954811;29;20009;-79
2023/08/23 07:07:12;;;;;;;;;;;16.80;99.90;;;;;;4955522;29;19928;-80
2023/08/23 07:09:37;;;;;;;;;;;16.90;99.90;;;;;;4939573;29;19981;-79
2023/08/23 07:12:03;;;;;;;;;;;16.90;99.90;;;;;;4956070;28;20049;-80
2023/08/23 07:14:28;;;;;;;;;;;17.00;99.90;;;;;;4955712;29;19929;-79
2023/08/23 07:16:54;;;;;;;;;;;17.00;99.90;;;;;;4957293;29;20475;-79
2023/08/23 07:19:20;;;;;;;;;;;17.10;99.90;;;;;;4956794;29;19946;-79
2023/08/23 07:21:45;;;;;;;;;;;17.20;99.90;;;;;;4954990;28;19965;-80
2023/08/23 07:24:11;;;;;;;;;;;17.20;99.90;;;;;;4955258;29;19962;-80
2023/08/23 07:26:37;;;;;;;;;;;17.30;99.90;;;;;;4957222;29;20348;-79
2023/08/23 07:29:02;;;;;;;;;;;17.30;99.90;;;;;;4954745;29;19926;-80
2023/08/23 07:31:28;;;;;;;;;;;17.40;99.90;;;;;;4955153;28;20394;-79
2023/08/23 07:33:54;;;;;;;;;;;17.50;99.90;;;;;;4955676;28;19942;-78
2023/08/23 07:36:19;;;;;;;;;;;17.60;99.90;;;;;;4956859;29;19923;-79
2023/08/23 07:38:45;;;;;;;;;;;17.70;99.90;;;;;;4956071;29;19947;-78
2023/08/23 07:41:10;;;;;;;;;;;17.80;99.90;;;;;;4955871;28;19923;-79
2023/08/23 07:43:37;;;;;;;;;;;17.80;99.90;;;;;;4954977;28;19953;-79
2023/08/23 07:46:07;;;;;;;;;;;18.00;99.90;;;;;;4955970;28;20454;-79
2023/08/23 07:48:32;;;;;;;;;;;18.10;99.90;;;;;;4955025;28;19923;-81
2023/08/23 07:51:01;;;;;;;;;;;18.20;99.90;;;;;;4954521;28;19927;-79
2023/08/23 07:53:27;;;;;;;;;;;18.30;99.90;;;;;;4954527;29;20380;-78
2023/08/23 07:55:53;;;;;;;;;;;18.40;99.90;;;;;;4954302;29;19922;-79
2023/08/23 07:58:18;;;;;;;;;;;18.50;99.90;;;;;;4954805;28;19922;-78
2023/08/23 08:00:44;;;;;;;;;;;18.60;99.90;;;;;;4954556;28;19923;-79
2023/08/23 08:03:09;;;;;;;;;;;18.70;99.90;;;;;;4955738;29;19930;-79
2023/08/23 08:05:35;;;;;;;;;;;18.80;99.90;;;;;;4954598;29;20021;-80
2023/08/23 08:08:02;;;;;;;;;;;18.90;99.90;;;;;;4956031;29;19922;-80
2023/08/23 08:10:28;;;;;;;;;;;19.00;99.90;;;;;;4954310;28;19926;-79
2023/08/23 08:12:53;;;;;;;;;;;19.10;99.90;;;;;;4954435;29;20384;-78
2023/08/23 08:15:19;;;;;;;;;;;19.20;99.90;;;;;;4954221;29;19930;-79
2023/08/23 08:17:46;;;;;;;;;;;19.30;99.90;;;;;;4954922;29;19926;-78
2023/08/23 08:20:12;;;;;;;;;;;19.40;99.90;;;;;;4956053;29;19922;-79
2023/08/23 08:22:37;;;;;;;;;;;19.40;99.90;;;;;;4954180;28;19965;-79
2023/08/23 08:25:04;;;;;;;;;;;19.50;99.90;;;;;;4954307;29;19958;-80
2023/08/23 08:27:30;;;;;;;;;;;19.60;99.90;;;;;;4954481;29;19976;-80
2023/08/23 08:29:56;;;;;;;;;;;19.70;99.90;;;;;;4955726;29;19927;-79
2023/08/23 08:32:21;;;;;;;;;;;19.60;99.90;;;;;;4955737;28;19989;-81
2023/08/23 08:34:47;;;;;;;;;;;19.70;99.90;;;;;;4954211;28;20422;-77
2023/08/23 08:37:13;;;;;;;;;;;19.80;99.90;;;;;;4955709;28;20323;-80
2023/08/23 08:39:38;;;;;;;;;;;19.80;99.90;;;;;;4954485;29;20364;-79
2023/08/23 08:42:04;;;;;;;;;;;19.90;99.90;;;;;;4954436;28;19950;-78
2023/08/23 08:44:30;;;;;;;;;;;20.00;99.90;;;;;;4954137;28;19954;-80
2023/08/23 08:46:55;;;;;;;;;;;20.10;99.90;;;;;;4957607;29;19931;-78
2023/08/23 08:49:21;;;;;;;;;;;20.10;99.90;;;;;;4957669;28;20026;-81
2023/08/23 08:51:47;;;;;;;;;;;20.20;99.90;;;;;;4957707;28;20005;-78
2023/08/23 08:54:16;;;;;;;;;;;20.30;99.90;;;;;;4958133;29;20372;-80
2023/08/23 08:56:43;;;;;;;;;;;20.30;99.90;;;;;;4941558;29;20442;-77
2023/08/23 08:59:08;;;;;;;;;;;20.40;99.90;;;;;;4958870;29;19922;-78
2023/08/23 09:01:35;;;;;;;;;;;20.50;99.90;;;;;;4957559;28;19922;-78
2023/08/23 09:04:00;;;;;;;;;;;20.60;99.90;;;;;;4957703;28;19922;-79
2023/08/23 09:06:27;;;;;;;;;;;20.60;99.90;;;;;;4957697;29;19923;-80
2023/08/23 09:08:53;;;;;;;;;;;20.70;99.90;;;;;;4957340;29;19922;-77
2023/08/23 09:11:19;;;;;;;;;;;20.80;99.90;;;;;;4958944;28;19931;-79
2023/08/23 09:13:44;;;;;;;;;;;20.90;99.90;;;;;;4958547;29;19985;-79
2023/08/23 09:16:12;;;;;;;;;;;21.00;99.90;;;;;;4957847;29;19923;-79
2023/08/23 09:18:42;;;;;;;;;;;21.10;99.90;;;;;;4958805;29;19930;-79
2023/08/23 09:21:10;;;;;;;;;;;21.20;99.90;;;;;;4957181;28;19938;-80
2023/08/23 09:23:35;;;;;;;;;;;21.20;99.90;;;;;;4957093;28;19970;-78
2023/08/23 09:26:01;;;;;;;;;;;21.30;99.90;;;;;;4957201;29;19926;-78
2023/08/23 09:28:28;;;;;;;;;;;21.30;99.90;;;;;;4956859;29;19922;-78
2023/08/23 09:30:54;;;;;;;;;;;21.50;99.90;;;;;;4958508;28;20304;-82
2023/08/23 09:33:20;;;;;;;;;;;21.50;99.90;;;;;;4958004;29;19923;-79
2023/08/23 09:35:49;;;;;;;;;;;21.30;99.90;;;;;;4957235;29;19926;-81
2023/08/23 09:38:18;;;;;;;;;;;21.30;99.90;;;;;;4957226;29;19923;-79
2023/08/23 09:40:44;;;;;;;;;;;21.30;99.90;;;;;;4956960;28;19923;-78
2023/08/23 09:43:11;;;;;;;;;;;21.40;99.90;;;;;;4956477;29;20339;-78
2023/08/23 09:45:37;;;;;;;;;;;21.50;99.90;;;;;;4956714;29;19929;-79
2023/08/23 09:48:04;;;;;;;;;;;21.60;99.90;;;;;;4957113;29;19922;-77
2023/08/23 09:50:32;;;;;;;;;;;21.70;99.90;;;;;;4957470;28;19974;-82
2023/08/23 09:53:00;;;;;;;;;;;21.80;99.90;;;;;;4956671;29;19969;-78
2023/08/23 09:55:26;;;;;;;;;;;21.60;99.90;;;;;;4956552;28;19969;-78
2023/08/23 09:57:53;;;;;;;;;;;21.70;99.90;;;;;;4955961;29;19930;-78
2023/08/23 10:00:18;;;;;;;;;;;21.80;99.90;;;;;;4956418;28;19933;-76
2023/08/23 10:02:44;;;;;;;;;;;21.80;99.90;;;;;;4956093;29;20308;-78
2023/08/23 10:05:11;;;;;;;;;;;22.00;99.90;;;;;;4940396;29;19977;-78
2023/08/23 10:07:38;;;;;;;;;;;22.10;99.90;;;;;;4956107;29;19926;-77
2023/08/23 10:10:05;;;;;;;;;;;22.40;99.90;;;;;;4956403;29;20396;-78
2023/08/23 10:12:42;;;;;;;;;;;22.50;99.90;;;;;;4956022;28;19929;-79
2023/08/23 10:15:08;;;;;;;;;;;22.40;99.90;;;;;;4955948;28;19922;-78
2023/08/23 10:17:35;;;;;;;;;;;22.20;99.90;;;;;;4955965;29;19944;-79
2023/08/23 10:20:05;;;;;;;;;;;22.10;99.90;;;;;;4955905;28;19962;-77
2023/08/23 10:22:30;;;;;;;;;;;22.00;99.90;;;;;;4956042;28;19957;-78
2023/08/23 10:24:56;;;;;;;;;;;22.10;99.90;;;;;;4956044;28;20013;-79
2023/08/23 10:27:24;;;;;;;;;;;22.20;99.90;;;;;;4956557;29;19922;-79
2023/08/23 10:29:50;;;;;;;;;;;22.40;99.90;;;;;;4956023;28;19977;-80
2023/08/23 10:32:17;;;;;;;;;;;22.60;99.90;;;;;;4956041;28;19945;-79
2023/08/23 10:34:42;;;;;;;;;;;22.70;99.90;;;;;;4955751;29;19930;-79
2023/08/23 10:37:18;;;;;;;;;;;22.80;99.90;;;;;;4955950;28;19922;-80
2023/08/23 10:39:49;;;;;;;;;;;22.80;99.90;;;;;;4957365;29;19923;-77
2023/08/23 10:42:15;;;;;;;;;;;22.70;99.90;;;;;;4955765;28;19922;-78
2023/08/23 10:44:52;;;;;;;;;;;22.80;99.90;;;;;;4956122;29;19922;-80
2023/08/23 10:47:18;;;;;;;;;;;22.80;99.90;;;;;;4957787;29;20285;-78
2023/08/23 10:49:44;;;;;;;;;;;22.70;99.90;;;;;;4956686;29;20025;-78
2023/08/23 10:52:10;;;;;;;;;;;22.60;99.90;;;;;;4955432;28;19972;-78
2023/08/23 10:54:36;;;;;;;;;;;22.50;99.90;;;;;;4955370;29;20010;-77
2023/08/23 10:57:02;;;;;;;;;;;22.60;99.90;;;;;;4956578;29;19922;-78
2023/08/23 10:59:28;;;;;;;;;;;22.70;99.90;;;;;;4955592;29;19922;-80
2023/08/23 11:01:54;;;;;;;;;;;22.60;99.90;;;;;;4955777;28;19923;-77
2023/08/23 11:04:20;;;;;;;;;;;22.50;99.90;;;;;;4955472;29;19923;-79
2023/08/23 11:06:46;;;;;;;;;;;22.50;99.90;;;;;;4955445;29;20017;-79
2023/08/23 11:09:11;;;;;;;;;;;22.60;99.90;;;;;;4954488;28;19970;-78
2023/08/23 11:11:37;;;;;;;;;;;22.80;99.90;;;;;;4954946;28;19950;-78
2023/08/23 11:14:05;;;;;;;;;;;23.10;99.90;;;;;;4939249;29;19922;-78
2023/08/23 11:16:31;;;;;;;;;;;23.30;99.90;;;;;;4955187;28;19929;-79
2023/08/23 11:18:56;;;;;;;;;;;23.50;99.90;;;;;;4954992;28;20384;-78
2023/08/23 11:21:22;;;;;;;;;;;23.60;99.90;;;;;;4956303;28;19988;-82
2023/08/23 11:23:48;;;;;;;;;;;23.70;99.90;;;;;;4955471;29;19922;-78
2023/08/23 11:26:13;;;;;;;;;;;23.80;99.90;;;;;;4956501;29;19922;-81
2023/08/23 11:28:39;;;;;;;;;;;23.90;99.90;;;;;;4956654;29;20006;-81
2023/08/23 11:31:06;;;;;;;;;;;23.80;99.90;;;;;;4954784;28;20378;-81
2023/08/23 11:33:33;;;;;;;;;;;24.00;99.90;;;;;;4955024;29;19976;-79
2023/08/23 11:35:59;;;;;;;;;;;24.10;99.90;;;;;;4954661;29;19926;-78
2023/08/23 11:38:27;;;;;;;;;;;24.20;99.90;;;;;;4956298;29;19923;-76
2023/08/23 11:40:53;;;;;;;;;;;24.20;99.90;;;;;;4938545;29;19922;-80
2023/08/23 11:43:18;;;;;;;;;;;24.30;99.90;;;;;;4954610;29;19929;-81
2023/08/23 11:45:45;;;;;;;;;;;24.30;99.90;;;;;;4954958;29;19922;-80
2023/08/23 11:48:10;;;;;;;;;;;24.40;99.90;;;;;;4954916;29;19922;-78
2023/08/23 11:50:38;;;;;;;;;;;24.20;99.90;;;;;;4954485;28;19927;-80
2023/08/23 11:53:05;;;;;;;;;;;24.20;99.90;;;;;;4954901;28;19923;-80
2023/08/23 11:55:32;;;;;;;;;;;24.20;99.90;;;;;;4954930;29;19961;-79
2023/08/23 11:57:58;;;;;;;;;;;24.20;99.90;;;;;;4954937;28;19922;-77
2023/08/23 12:00:23;;;;;;;;;;;24.30;99.90;;;;;;4955494;28;19929;-79
2023/08/23 12:02:49;;;;;;;;;;;24.30;99.90;;;;;;4954370;29;19926;-81
2023/08/23 12:05:16;;;;;;;;;;;24.40;99.90;;;;;;4954322;29;20304;-80
2023/08/23 12:07:41;;;;;;;;;;;24.40;99.90;;;;;;4954784;29;20017;-79
2023/08/23 12:10:11;;;;;;;;;;;24.30;99.90;;;;;;4955701;29;20456;-82
2023/08/23 12:12:36;;;;;;;;;;;24.20;99.90;;;;;;4955899;28;19930;-80
2023/08/23 12:15:02;;;;;;;;;;;24.20;99.90;;;;;;4954682;29;20308;-80
2023/08/23 12:17:28;;;;;;;;;;;24.10;99.90;;;;;;4954318;29;20380;-80
2023/08/23 12:19:53;;;;;;;;;;;24.10;99.90;;;;;;4956747;28;19922;-82
2023/08/23 12:22:19;;;;;;;;;;;24.10;99.90;;;;;;4958050;28;19922;-79
2023/08/23 12:24:45;;;;;;;;;;;24.20;99.90;;;;;;4958008;29;19932;-76
2023/08/23 12:27:10;;;;;;;;;;;24.30;99.90;;;;;;4959283;28;20024;-76
2023/08/23 12:29:37;;;;;;;;;;;24.50;99.90;;;;;;4958223;29;19930;-78
2023/08/23 12:32:05;;;;;;;;;;;24.50;99.90;;;;;;4942042;29;19922;-80
2023/08/23 12:34:31;;;;;;;;;;;24.70;99.90;;;;;;4959336;28;19923;-80
2023/08/23 12:36:56;;;;;;;;;;;24.70;99.90;;;;;;4959066;29;19929;-79
2023/08/23 12:39:22;;;;;;;;;;;24.60;99.90;;;;;;4958012;29;19948;-80
2023/08/23 12:41:47;;;;;;;;;;;24.60;99.90;;;;;;4957987;28;19923;-79
2023/08/23 12:44:13;;;;;;;;;;;24.70;99.90;;;;;;4957538;29;20431;-81
2023/08/23 12:46:39;;;;;;;;;;;24.80;99.90;;;;;;4957913;29;19922;-77
2023/08/23 12:49:07;;;;;;;;;;;24.90;99.90;;;;;;4958657;28;19923;-79
2023/08/23 12:51:36;;;;;;;;;;;24.90;99.90;;;;;;4941764;29;19929;-80
2023/08/23 12:54:01;;;;;;;;;;;25.00;99.90;;;;;;4958948;28;20062;-78
2023/08/23 12:56:27;;;;;;;;;;;25.00;99.90;;;;;;4958667;28;20403;-80
2023/08/23 12:58:52;;;;;;;;;;;25.00;99.90;;;;;;4958946;28;20285;-77
2023/08/23 13:01:18;;;;;;;;;;;25.10;99.90;;;;;;4957599;28;19922;-78
2023/08/23 13:03:43;;;;;;;;;;;25.10;99.90;;;;;;4957538;29;20388;-79
2023/08/23 13:06:09;;;;;;;;;;;25.10;99.90;;;;;;4957624;29;19922;-77
2023/08/23 13:08:34;;;;;;;;;;;25.00;99.90;;;;;;4957543;29;19922;-80
2023/08/23 13:11:00;;;;;;;;;;;25.00;99.90;;;;;;4941944;29;19927;-76
2023/08/23 13:13:26;;;;;;;;;;;25.00;99.90;;;;;;4957279;29;19926;-78
2023/08/23 13:15:52;;;;;;;;;;;25.20;99.90;;;;;;4958934;28;20292;-78
2023/08/23 13:18:17;;;;;;;;;;;25.20;99.90;;;;;;4941421;29;19922;-80
2023/08/23 13:20:43;;;;;;;;;;;25.30;99.90;;;;;;4958367;28;19972;-79
2023/08/23 13:23:08;;;;;;;;;;;25.30;99.90;;;;;;4958822;28;19929;-77
2023/08/23 13:25:34;;;;;;;;;;;25.40;99.90;;;;;;4956941;29;19930;-78
2023/08/23 13:27:59;;;;;;;;;;;25.50;99.90;;;;;;4940864;29;19923;-76
2023/08/23 13:30:26;;;;;;;;;;;25.50;99.90;;;;;;4957594;28;19931;-78
2023/08/23 13:32:52;;;;;;;;;;;25.50;99.90;;;;;;4956791;29;19923;-79
2023/08/23 13:35:17;;;;;;;;;;;25.30;99.90;;;;;;4956960;29;19929;-79
2023/08/23 13:37:43;;;;;;;;;;;25.10;99.90;;;;;;4957356;29;19922;-80
2023/08/23 13:40:09;;;;;;;;;;;24.90;99.90;;;;;;4957017;29;19922;-79
2023/08/23 13:42:34;;;;;;;;;;;24.70;99.90;;;;;;4956590;28;19923;-78
2023/08/23 13:45:00;;;;;;;;;;;24.50;99.90;;;;;;4957360;29;19965;-81
2023/08/23 13:47:25;;;;;;;;;;;24.40;99.90;;;;;;4957800;28;20376;-78
2023/08/23 13:49:52;;;;;;;;;;;24.30;99.90;;;;;;4958022;28;19926;-80
2023/08/23 13:52:18;;;;;;;;;;;24.20;99.90;;;;;;4956906;28;19923;-78
2023/08/23 13:54:43;;;;;;;;;;;24.10;99.90;;;;;;4956891;29;20384;-80
2023/08/23 13:57:09;;;;;;;;;;;24.00;99.90;;;;;;4956618;29;19929;-79
2023/08/23 13:59:34;;;;;;;;;;;24.00;99.90;;;;;;4940641;29;19922;-80
2023/08/23 14:02:00;;;;;;;;;;;24.10;99.90;;;;;;4957485;28;19973;-80
2023/08/23 14:04:25;;;;;;;;;;;24.10;99.90;;;;;;4956307;29;19973;-78
2023/08/23 14:06:51;;;;;;;;;;;24.20;99.90;;;;;;4957291;28;19926;-80
2023/08/23 14:09:17;;;;;;;;;;;24.50;99.90;;;;;;4956088;29;19922;-80
2023/08/23 14:11:51;;;;;;;;;;;24.70;99.90;;;;;;4957289;28;19926;-78
2023/08/23 14:14:16;;;;;;;;;;;24.80;99.90;;;;;;4957276;28;19949;-80
2023/08/23 14:16:42;;;;;;;;;;;24.70;99.90;;;;;;4956037;29;19922;-79
2023/08/23 14:19:07;;;;;;;;;;;24.50;99.90;;;;;;4957472;28;19929;-80
2023/08/23 14:21:33;;;;;;;;;;;24.40;99.90;;;;;;4955838;28;19922;-76
2023/08/23 14:23:58;;;;;;;;;;;24.50;99.90;;;;;;4955792;29;19930;-77
2023/08/23 14:26:24;;;;;;;;;;;24.60;99.90;;;;;;4956846;28;19922;-77
2023/08/23 14:28:50;;;;;;;;;;;24.70;99.90;;;;;;4955964;29;19922;-78
2023/08/23 14:31:15;;;;;;;;;;;24.60;99.90;;;;;;4939532;29;20388;-77
2023/08/23 14:33:41;;;;;;;;;;;24.30;99.90;;;;;;4955823;29;19922;-80
2023/08/23 14:36:06;;;;;;;;;;;24.30;99.90;;;;;;4955508;29;20276;-80
2023/08/23 14:38:32;;;;;;;;;;;24.40;99.90;;;;;;4955493;29;19923;-79
2023/08/23 14:40:57;;;;;;;;;;;24.50;99.90;;;;;;4956850;28;20049;-78
2023/08/23 14:43:23;;;;;;;;;;;24.60;99.90;;;;;;4954804;28;20316;-80
2023/08/23 14:45:48;;;;;;;;;;;24.60;99.90;;;;;;4955645;29;20383;-80
2023/08/23 14:48:14;;;;;;;;;;;24.60;99.90;;;;;;4955748;29;19923;-78
2023/08/23 14:50:39;;;;;;;;;;;24.80;99.90;;;;;;4939262;29;19927;-78
2023/08/23 14:53:05;;;;;;;;;;;24.70;99.90;;;;;;4939671;29;19931;-78
2023/08/23 14:55:32;;;;;;;;;;;24.70;99.90;;;;;;4956534;28;20380;-80
2023/08/23 14:57:58;;;;;;;;;;;24.70;99.90;;;;;;4955281;29;19954;-79
2023/08/23 15:00:25;;;;;;;;;;;24.80;99.90;;;;;;4954931;28;19922;-76
2023/08/23 15:02:51;;;;;;;;;;;24.90;99.90;;;;;;4955583;29;20292;-76
2023/08/23 15:05:17;;;;;;;;;;;25.00;99.90;;;;;;4955061;29;19928;-79
2023/08/23 15:07:42;;;;;;;;;;;24.90;99.90;;;;;;4956510;28;19922;-81
2023/08/23 15:10:08;;;;;;;;;;;24.90;99.90;;;;;;4955350;29;19926;-80
2023/08/23 15:12:33;;;;;;;;;;;24.80;99.90;;;;;;4955155;28;19923;-79
2023/08/23 15:14:59;;;;;;;;;;;24.80;99.90;;;;;;4954908;29;19923;-79
2023/08/23 15:17:24;;;;;;;;;;;24.80;99.90;;;;;;4956107;28;19922;-81
2023/08/23 15:19:50;;;;;;;;;;;24.80;99.90;;;;;;4954803;29;20395;-81
2023/08/23 15:22:15;;;;;;;;;;;24.80;99.90;;;;;;4955061;28;20291;-76
2023/08/23 15:24:41;;;;;;;;;;;24.50;99.90;;;;;;4968275;28;20360;-79
2023/08/23 15:27:07;;;;;;;;;;;24.40;99.90;;;;;;4973879;28;20287;-81
2023/08/23 15:29:33;;;;;;;;;;;24.30;99.90;;;;;;4974075;28;20424;-80
2023/08/23 15:31:59;;;;;;;;;;;24.30;99.90;;;;;;4973879;28;19969;-79
2023/08/23 15:34:32;;;;;;;;;;;24.30;99.90;;;;;;4973911;28;20009;-80
2023/08/23 15:36:58;;;;;;;;;;;24.40;99.90;;;;;;4973947;28;19922;-79
2023/08/23 15:39:23;;;;;;;;;;;24.40;99.90;;;;;;4973820;28;19922;-78
2023/08/23 15:41:49;;;;;;;;;;;24.50;99.90;;;;;;4973724;28;19922;-77
2023/08/23 15:44:14;;;;;;;;;;;24.50;99.90;;;;;;4975322;28;19922;-79
2023/08/23 15:46:40;;;;;;;;;;;24.60;99.90;;;;;;4975045;28;19928;-81
2023/08/23 15:49:05;;;;;;;;;;;24.50;99.90;;;;;;4974093;28;19932;-81
2023/08/23 15:51:31;;;;;;;;;;;24.50;99.90;;;;;;4974523;28;20484;-82
2023/08/23 15:53:56;;;;;;;;;;;24.40;99.90;;;;;;4975458;28;20319;-79
2023/08/23 15:56:22;;;;;;;;;;;24.30;99.90;;;;;;4980251;28;20502;-81
2023/08/23 15:58:47;;;;;;;;;;;24.20;99.90;;;;;;4980201;28;19922;-80
2023/08/23 16:01:13;;;;;;;;;;;24.30;99.90;;;;;;4980023;28;19976;-82
2023/08/23 16:03:38;;;;;;;;;;;24.40;99.90;;;;;;4980656;28;19922;-80
2023/08/23 16:06:06;;;;;;;;;;;24.50;99.90;;;;;;4981740;28;20383;-78
2023/08/23 16:08:32;;;;;;;;;;;24.50;99.90;;;;;;4980181;28;20005;-81
2023/08/23 16:10:59;;;;;;;;;;;24.50;99.90;;;;;;4980305;28;20018;-81
2023/08/23 16:13:25;;;;;;;;;;;24.50;99.90;;;;;;4980152;28;19929;-81
2023/08/23 16:15:50;;;;;;;;;;;24.40;99.90;;;;;;4980582;28;19922;-80
2023/08/23 16:18:16;;;;;;;;;;;24.30;99.90;;;;;;4964313;28;19977;-79
2023/08/23 16:20:44;;;;;;;;;;;24.30;99.90;;;;;;4980170;28;19922;-82
2023/08/23 16:23:09;;;;;;;;;;;24.30;99.90;;;;;;4981684;28;19965;-80
2023/08/23 16:25:35;;;;;;;;;;;24.10;99.90;;;;;;4980384;28;19925;-79
2023/08/23 16:28:00;;;;;;;;;;;24.10;99.90;;;;;;4980481;28;19929;-77
2023/08/23 16:30:26;;;;;;;;;;;24.10;99.90;;;;;;4979801;28;19938;-79
2023/08/23 16:32:51;;;;;;;;;;;24.00;99.90;;;;;;4981536;28;20021;-80
2023/08/23 16:35:17;;;;;;;;;;;23.80;99.90;;;;;;4981377;28;19922;-82
2023/08/23 16:37:42;;;;;;;;;;;23.70;99.90;;;;;;4979821;28;19930;-79
2023/08/23 16:40:08;;;;;;;;;;;23.70;99.90;;;;;;4980228;28;19922;-81
2023/08/23 16:42:34;;;;;;;;;;;23.50;99.90;;;;;;4979711;28;19922;-79
2023/08/23 16:45:00;;;;;;;;;;;23.40;99.90;;;;;;4980133;28;19922;-80
2023/08/23 16:47:26;;;;;;;;;;;23.30;99.90;;;;;;4979723;28;19933;-81
2023/08/23 16:49:52;;;;;;;;;;;23.10;99.90;;;;;;4979614;28;19977;-80
2023/08/23 16:52:18;;;;;;;;;;;22.90;99.90;;;;;;4963887;28;20328;-79
2023/08/23 16:54:43;;;;;;;;;;;22.80;99.90;;;;;;4979310;28;20331;-79
2023/08/23 16:57:09;;;;;;;;;;;22.70;99.90;;;;;;4963528;28;19922;-78
2023/08/23 16:59:34;;;;;;;;;;;22.60;99.90;;;;;;4979327;28;20359;-79
2023/08/23 17:02:00;;;;;;;;;;;22.50;99.90;;;;;;4966884;28;19923;-80
2023/08/23 17:04:25;;;;;;;;;;;22.40;99.90;;;;;;4944243;29;19949;-79
2023/08/23 17:06:51;;;;;;;;;;;22.30;99.90;;;;;;4957016;28;20061;-81
2023/08/23 17:09:17;;;;;;;;;;;22.30;99.90;;;;;;4957301;29;20017;-79